Time;durP1;ratioP1;P1;durP2;ratioP2;P2;SDS_P1;SDS_P2;PMS_P1;PMS_P2;Temp;Humidity;BMP_temperature;BMP_pressure;BME280_temperature;BME280_humidity;BME280_pressure;Samples;Min_cycle;Max_cycle;Signal;HPM_P1;HPM_P2
2023/07/21 00:01:39;;;;;;;2.55;2.00;;;16.10;90.30;;;;;;5013066;28;20037;-80
2023/07/21 00:04:05;;;;;;;3.65;2.55;;;15.90;90.60;;;;;;5012478;28;20070;-79
2023/07/21 00:06:31;;;;;;;5.97;2.63;;;15.80;90.90;;;;;;5012937;28;20067;-79
2023/07/21 00:08:57;;;;;;;5.78;3.15;;;15.70;92.00;;;;;;5013033;28;20026;-79
2023/07/21 00:11:23;;;;;;;5.80;2.80;;;15.70;91.70;;;;;;5048577;22;20133;-80
2023/07/21 00:13:49;;;;;;;4.75;2.63;;;15.60;92.20;;;;;;5030832;28;20037;-81
2023/07/21 00:16:15;;;;;;;5.55;2.60;;;15.60;91.40;;;;;;5032464;28;20017;-81
2023/07/21 00:18:41;;;;;;;4.85;2.92;;;15.60;91.20;;;;;;5032908;28;20521;-81
2023/07/21 00:21:07;;;;;;;5.10;2.67;;;15.60;91.60;;;;;;5025357;28;20064;-81
2023/07/21 00:23:33;;;;;;;8.10;2.97;;;15.50;91.70;;;;;;5014831;28;20517;-81
2023/07/21 00:26:00;;;;;;;6.32;3.17;;;15.50;91.80;;;;;;5013276;28;20042;-81
2023/07/21 00:28:26;;;;;;;4.18;2.65;;;15.50;91.90;;;;;;5015028;28;20013;-81
2023/07/21 00:30:52;;;;;;;5.18;2.38;;;15.50;92.00;;;;;;5013508;28;20524;-80
2023/07/21 00:33:18;;;;;;;8.20;2.80;;;15.60;92.40;;;;;;5014586;28;20105;-81
2023/07/21 00:35:43;;;;;;;4.68;2.60;;;15.60;92.20;;;;;;5013210;28;20478;-81
2023/07/21 00:38:09;;;;;;;6.32;2.85;;;15.60;92.10;;;;;;5014183;28;20026;-81
2023/07/21 00:40:37;;;;;;;4.30;2.85;;;15.60;92.60;;;;;;5014554;28;20034;-81
2023/07/21 00:43:03;;;;;;;4.70;3.15;;;15.50;92.40;;;;;;5014250;28;20513;-81
2023/07/21 00:45:34;;;;;;;4.65;3.03;;;15.40;92.60;;;;;;5014292;28;20030;-81
2023/07/21 00:48:03;;;;;;;4.53;2.80;;;15.40;92.90;;;;;;5021335;28;20076;-81
2023/07/21 00:50:29;;;;;;;3.60;2.63;;;15.30;92.80;;;;;;5014345;28;20049;-81
2023/07/21 00:52:56;;;;;;;4.13;2.63;;;15.20;93.50;;;;;;5014267;28;20112;-81
2023/07/21 00:55:22;;;;;;;5.45;3.45;;;15.10;93.20;;;;;;5014213;28;20030;-81
2023/07/21 00:57:48;;;;;;;4.25;2.88;;;15.20;92.90;;;;;;5014135;28;20014;-81
2023/07/21 01:00:13;;;;;;;4.20;2.85;;;15.10;92.80;;;;;;5013857;28;20474;-81
2023/07/21 01:02:39;;;;;;;3.85;2.75;;;15.10;92.40;;;;;;5014358;28;20030;-81
2023/07/21 01:05:06;;;;;;;3.88;2.42;;;15.00;92.80;;;;;;5014150;28;20541;-81
2023/07/21 01:07:33;;;;;;;5.20;3.00;;;14.90;93.00;;;;;;5014103;28;20037;-81
2023/07/21 01:12:40;;;;;;;5.93;3.10;;;14.90;92.70;;;;;;5049320;28;20052;-80
2023/07/21 01:15:06;;;;;;;4.90;3.15;;;15.00;92.90;;;;;;5053763;28;20025;-81
2023/07/21 01:17:33;;;;;;;4.10;2.88;;;14.90;93.30;;;;;;5053719;28;20385;-80
2023/07/21 01:20:00;;;;;;;4.50;2.95;;;14.90;93.20;;;;;;5052416;28;20056;-80
2023/07/21 01:22:31;;;;;;;5.90;3.20;;;15.00;92.70;;;;;;5029156;28;20434;-80
2023/07/21 01:25:07;;;;;;;4.85;3.30;;;15.00;92.70;;;;;;5023176;28;20101;-81
2023/07/21 01:27:36;;;;;;;5.35;3.10;;;15.10;92.50;;;;;;5019490;28;20046;-80
2023/07/21 01:30:02;;;;;;;4.45;2.85;;;15.20;92.60;;;;;;5013445;28;20026;-81
2023/07/21 01:32:29;;;;;;;4.30;2.92;;;15.20;92.30;;;;;;5020805;28;20049;-80
2023/07/21 01:34:56;;;;;;;11.18;3.10;;;15.10;92.00;;;;;;5026801;28;20033;-80
2023/07/21 01:37:23;;;;;;;5.25;3.00;;;15.10;92.20;;;;;;5013885;28;20109;-81
2023/07/21 01:39:51;;;;;;;7.45;4.15;;;15.10;92.40;;;;;;5013671;28;20018;-80
2023/07/21 01:42:19;;;;;;;4.93;3.15;;;15.10;92.30;;;;;;5028983;28;20393;-80
2023/07/21 01:44:44;;;;;;;3.88;2.92;;;15.10;92.30;;;;;;5017191;28;20433;-80
2023/07/21 01:47:11;;;;;;;4.68;3.00;;;15.10;92.20;;;;;;5013432;28;21100;-81
2023/07/21 01:49:36;;;;;;;6.80;4.38;;;15.10;92.40;;;;;;5030831;28;20466;-80
2023/07/21 01:52:02;;;;;;;5.80;3.05;;;15.00;92.30;;;;;;5016429;28;20087;-81
2023/07/21 01:54:46;;;;;;;4.80;3.03;;;15.10;92.30;;;;;;5013381;28;20057;-81
2023/07/21 01:57:20;;;;;;;5.40;3.67;;;15.00;92.20;;;;;;5036045;28;20045;-80
2023/07/21 01:59:46;;;;;;;5.93;3.55;;;15.00;92.40;;;;;;5023987;28;20032;-81
2023/07/21 02:02:13;;;;;;;5.10;3.58;;;14.90;92.50;;;;;;5014752;28;20087;-81
2023/07/21 02:04:39;;;;;;;6.13;4.10;;;14.90;92.60;;;;;;5013351;28;20482;-80
2023/07/21 02:07:05;;;;;;;6.70;3.47;;;14.80;92.50;;;;;;5012918;28;20391;-81
2023/07/21 02:09:31;;;;;;;7.55;3.88;;;14.70;92.60;;;;;;5013283;28;20067;-80
2023/07/21 02:11:58;;;;;;;5.85;3.40;;;14.60;92.90;;;;;;5046761;22;20045;-81
2023/07/21 02:14:24;;;;;;;5.68;3.67;;;14.60;93.00;;;;;;5031734;28;20489;-81
2023/07/21 02:16:49;;;;;;;7.00;4.03;;;14.60;93.00;;;;;;5031303;28;20021;-81
2023/07/21 02:19:15;;;;;;;5.63;3.65;;;14.60;93.70;;;;;;5031628;28;20122;-81
2023/07/21 02:21:41;;;;;;;5.63;3.75;;;14.40;93.30;;;;;;5031450;28;20061;-81
2023/07/21 02:24:07;;;;;;;10.20;3.90;;;14.40;93.30;;;;;;5030594;28;20049;-81
2023/07/21 02:26:32;;;;;;;10.45;3.65;;;14.30;93.60;;;;;;5030670;28;20075;-81
2023/07/21 02:28:59;;;;;;;6.47;3.67;;;14.30;93.80;;;;;;5031589;28;20504;-81
2023/07/21 02:31:25;;;;;;;5.20;3.33;;;14.30;93.70;;;;;;5031322;28;20492;-81
2023/07/21 02:33:50;;;;;;;6.00;3.95;;;14.30;93.70;;;;;;5014173;28;20034;-80
2023/07/21 02:36:16;;;;;;;8.73;3.83;;;14.20;93.70;;;;;;5013802;28;20044;-80
2023/07/21 02:38:42;;;;;;;8.43;4.28;;;14.30;93.80;;;;;;5031493;28;20017;-81
2023/07/21 02:41:09;;;;;;;7.05;4.03;;;14.20;94.00;;;;;;5030205;28;20525;-80
2023/07/21 02:43:35;;;;;;;6.30;3.75;;;14.20;93.90;;;;;;5031493;28;20014;-81
2023/07/21 02:46:01;;;;;;;6.30;3.85;;;14.20;94.20;;;;;;5030841;28;20108;-81
2023/07/21 02:48:29;;;;;;;5.93;4.18;;;14.10;94.20;;;;;;5014078;28;20061;-81
2023/07/21 02:50:58;;;;;;;5.65;3.72;;;14.00;94.40;;;;;;5031524;28;20112;-80
2023/07/21 02:53:25;;;;;;;6.90;4.10;;;13.90;94.60;;;;;;5031602;28;20025;-81
2023/07/21 02:55:50;;;;;;;10.57;4.10;;;13.80;94.60;;;;;;5030877;28;20025;-81
2023/07/21 02:58:17;;;;;;;8.10;4.20;;;13.80;95.30;;;;;;5031212;28;20066;-81
2023/07/21 03:00:43;;;;;;;9.63;4.43;;;13.70;95.10;;;;;;5030849;28;20040;-80
2023/07/21 03:03:14;;;;;;;8.60;4.38;;;13.70;95.30;;;;;;5030693;28;20096;-81
2023/07/21 03:05:41;;;;;;;;;;;13.70;95.20;;;;;;5030338;28;20061;-81
2023/07/21 03:08:07;;;;;;;7.53;4.45;;;13.70;95.20;;;;;;5031072;28;19909;-81
2023/07/21 03:10:33;;;;;;;7.68;4.53;;;13.60;95.40;;;;;;5050739;23;20009;-80
2023/07/21 03:12:59;;;;;;;9.07;4.65;;;13.70;95.20;;;;;;5018850;28;20037;-80
2023/07/21 03:15:25;;;;;;;8.35;4.30;;;13.60;95.40;;;;;;5011494;28;20025;-80
2023/07/21 03:17:50;;;;;;;6.20;4.20;;;13.60;95.50;;;;;;5011569;28;20519;-80
2023/07/21 03:20:16;;;;;;;8.43;4.32;;;13.50;95.60;;;;;;5011449;28;20112;-79
2023/07/21 03:22:43;;;;;;;6.90;4.30;;;13.50;95.80;;;;;;5011313;28;20072;-80
2023/07/21 03:25:10;;;;;;;8.55;4.40;;;13.40;96.20;;;;;;5016535;28;20018;-79
2023/07/21 03:27:36;;;;;;;11.85;5.13;;;13.40;96.00;;;;;;5008939;28;20137;-79
2023/07/21 03:30:09;;;;;;;8.90;4.90;;;13.30;96.00;;;;;;5011725;28;20101;-81
2023/07/21 03:32:36;;;;;;;9.05;5.00;;;13.30;95.90;;;;;;4997904;28;20025;-80
2023/07/21 03:35:05;;;;;;;9.25;4.88;;;13.40;95.70;;;;;;5011930;28;20021;-80
2023/07/21 03:37:34;;;;;;;9.25;4.55;;;13.40;95.50;;;;;;5011629;28;20018;-80
2023/07/21 03:40:03;;;;;;;6.68;4.78;;;13.40;95.50;;;;;;5011352;28;20057;-79
2023/07/21 03:42:28;;;;;;;7.72;4.45;;;13.50;95.30;;;;;;5008783;28;20030;-80
2023/07/21 03:44:54;;;;;;;8.38;4.38;;;13.50;95.30;;;;;;5011774;28;20144;-80
2023/07/21 03:47:20;;;;;;;7.80;4.60;;;13.50;95.30;;;;;;5011499;28;20161;-80
2023/07/21 03:49:50;;;;;;;8.35;5.05;;;13.40;95.30;;;;;;5015168;28;20454;-79
2023/07/21 03:52:16;;;;;;;6.97;4.65;;;13.40;95.30;;;;;;5015479;28;20022;-80
2023/07/21 03:54:41;;;;;;;9.10;4.78;;;13.30;95.30;;;;;;5020551;28;20024;-80
2023/07/21 03:57:07;;;;;;;7.30;4.70;;;13.30;95.50;;;;;;5012644;28;20029;-80
2023/07/21 03:59:33;;;;;;;11.73;5.68;;;13.20;95.80;;;;;;5015434;28;20050;-80
2023/07/21 04:01:58;;;;;;;6.57;4.47;;;13.20;95.70;;;;;;5015551;28;20109;-80
2023/07/21 04:04:24;;;;;;;9.75;5.38;;;13.10;95.90;;;;;;5015280;28;20017;-80
2023/07/21 04:06:50;;;;;;;7.57;4.60;;;13.10;95.90;;;;;;5015347;28;20021;-80
2023/07/21 04:09:15;;;;;;;8.13;4.63;;;13.00;96.20;;;;;;5014901;28;20026;-80
2023/07/21 04:11:42;;;;;;;6.00;4.20;;;13.00;96.20;;;;;;5012678;28;20037;-80
2023/07/21 04:14:07;;;;;;;9.93;5.00;;;12.90;96.40;;;;;;5014999;28;20402;-80
2023/07/21 04:16:34;;;;;;;8.10;4.72;;;12.90;96.30;;;;;;5013161;28;20030;-80
2023/07/21 04:18:59;;;;;;;10.10;5.32;;;12.80;96.30;;;;;;5015077;28;20025;-80
2023/07/21 04:21:25;;;;;;;11.68;4.85;;;12.80;96.30;;;;;;5014952;28;20128;-80
2023/07/21 04:23:51;;;;;;;9.35;5.05;;;12.80;96.50;;;;;;5019859;28;20022;-80
2023/07/21 04:26:17;;;;;;;7.30;4.70;;;12.80;96.60;;;;;;5014861;28;20355;-80
2023/07/21 04:28:44;;;;;;;8.63;5.15;;;12.70;96.50;;;;;;5014420;28;20524;-80
2023/07/21 04:31:10;;;;;;;10.32;5.30;;;12.70;96.60;;;;;;5012847;28;20363;-80
2023/07/21 04:33:36;;;;;;;7.47;4.78;;;12.70;96.70;;;;;;5014627;28;20470;-80
2023/07/21 04:36:02;;;;;;;9.85;5.38;;;12.60;96.70;;;;;;5014624;28;20026;-80
2023/07/21 04:38:28;;;;;;;9.25;4.47;;;12.60;96.60;;;;;;5014757;28;20073;-80
2023/07/21 04:40:54;;;;;;;6.95;4.70;;;12.60;96.80;;;;;;5036933;23;20496;-81
2023/07/21 04:43:20;;;;;;;10.10;5.68;;;12.60;96.60;;;;;;5053230;28;20023;-81
2023/07/21 04:45:46;;;;;;;10.52;5.45;;;12.60;96.90;;;;;;5053215;28;20021;-79
2023/07/21 04:48:11;;;;;;;15.43;6.03;;;12.50;96.70;;;;;;5053367;28;20583;-79
2023/07/21 04:50:37;;;;;;;7.82;5.03;;;12.50;96.80;;;;;;5032925;28;20022;-79
2023/07/21 04:53:03;;;;;;;8.35;4.43;;;12.50;96.60;;;;;;5033018;28;20021;-79
2023/07/21 04:55:29;;;;;;;7.22;4.95;;;12.50;96.40;;;;;;5033314;28;20040;-79
2023/07/21 04:57:54;;;;;;;10.27;5.50;;;12.50;96.10;;;;;;5032912;28;20029;-79
2023/07/21 05:00:21;;;;;;;8.23;5.43;;;12.60;96.00;;;;;;5045754;28;20025;-79
2023/07/21 05:02:47;;;;;;;12.95;6.60;;;12.60;96.00;;;;;;5033073;28;20049;-79
2023/07/21 05:05:12;;;;;;;8.57;5.38;;;12.50;96.20;;;;;;5015930;28;20057;-79
2023/07/21 05:07:38;;;;;;;9.35;5.47;;;12.60;96.00;;;;;;5032838;28;20021;-79
2023/07/21 05:10:05;;;;;;;10.48;5.57;;;12.60;95.80;;;;;;5033003;28;20025;-79
2023/07/21 05:12:31;;;;;;;10.32;5.70;;;12.70;95.80;;;;;;5030658;28;20022;-79
2023/07/21 05:14:59;;;;;;;10.00;5.93;;;12.70;95.60;;;;;;5015146;28;20371;-79
2023/07/21 05:17:25;;;;;;;8.88;5.93;;;12.70;95.90;;;;;;5032307;28;20026;-79
2023/07/21 05:19:50;;;;;;;9.90;5.90;;;12.70;95.40;;;;;;5032890;28;20025;-79
2023/07/21 05:22:16;;;;;;;9.95;5.82;;;12.70;95.50;;;;;;5032344;28;20060;-79
2023/07/21 05:24:42;;;;;;;10.63;6.28;;;12.80;95.10;;;;;;5015855;28;20020;-79
2023/07/21 05:27:07;;;;;;;10.50;6.10;;;12.80;95.10;;;;;;5032737;28;20436;-80
2023/07/21 05:29:34;;;;;;;12.20;6.45;;;12.90;95.00;;;;;;5032840;28;20116;-78
2023/07/21 05:32:01;;;;;;;10.13;5.95;;;12.90;95.10;;;;;;5032654;28;20025;-79
2023/07/21 05:34:26;;;;;;;10.40;5.88;;;13.00;94.50;;;;;;5032843;28;20022;-79
2023/07/21 05:36:52;;;;;;;10.38;5.72;;;13.10;94.30;;;;;;5032545;28;20044;-79
2023/07/21 05:39:18;;;;;;;11.05;5.72;;;13.10;94.50;;;;;;5032138;28;20013;-80
2023/07/21 05:41:43;;;;;;;9.95;6.30;;;13.10;94.30;;;;;;5053984;22;20034;-80
2023/07/21 05:44:10;;;;;;;7.97;5.43;;;13.10;94.70;;;;;;5031901;28;20032;-80
2023/07/21 05:46:39;;;;;;;9.10;5.18;;;13.10;94.20;;;;;;5031993;28;20014;-80
2023/07/21 05:49:06;;;;;;;9.48;6.20;;;13.20;94.20;;;;;;5032853;28;20037;-80
2023/07/21 05:51:32;;;;;;;12.93;6.10;;;13.20;94.20;;;;;;5026215;28;20018;-80
2023/07/21 05:53:57;;;;;;;8.00;5.30;;;13.30;94.10;;;;;;5012692;28;20029;-80
2023/07/21 05:56:23;;;;;;;14.77;5.88;;;13.30;93.90;;;;;;5017135;28;20032;-80
2023/07/21 05:58:49;;;;;;;10.93;5.70;;;13.40;93.10;;;;;;5005708;28;20094;-80
2023/07/21 06:01:15;;;;;;;13.32;6.28;;;13.50;93.10;;;;;;5012500;28;21365;-80
2023/07/21 06:03:41;;;;;;;11.18;5.70;;;13.50;93.20;;;;;;5012508;28;20022;-80
2023/07/21 06:06:09;;;;;;;11.30;6.07;;;13.60;92.50;;;;;;5004450;28;20544;-79
2023/07/21 06:08:35;;;;;;;9.13;5.80;;;13.70;92.20;;;;;;5013079;28;20026;-80
2023/07/21 06:11:02;;;;;;;11.20;6.32;;;13.80;92.40;;;;;;5010334;28;20032;-80
2023/07/21 06:13:29;;;;;;;8.95;6.00;;;13.80;91.80;;;;;;5012501;28;20068;-80
2023/07/21 06:15:56;;;;;;;10.30;5.97;;;14.00;91.40;;;;;;5012945;28;20494;-80
2023/07/21 06:18:22;;;;;;;11.90;6.18;;;14.10;91.10;;;;;;5012886;28;20068;-79
2023/07/21 06:20:50;;;;;;;10.93;6.25;;;14.10;90.90;;;;;;5012451;28;20587;-80
2023/07/21 06:23:16;;;;;;;10.10;5.53;;;14.30;90.90;;;;;;5012678;28;20032;-80
2023/07/21 06:25:41;;;;;;;11.10;6.38;;;14.50;90.00;;;;;;5012923;28;20026;-79
2023/07/21 06:28:07;;;;;;;10.20;6.03;;;14.70;88.80;;;;;;5012532;28;20486;-80
2023/07/21 06:30:34;;;;;;;9.35;5.93;;;14.90;87.00;;;;;;5012454;28;20483;-80
2023/07/21 06:32:59;;;;;;;9.65;5.93;;;15.10;87.30;;;;;;5012385;28;20018;-79
2023/07/21 06:35:25;;;;;;;12.50;5.78;;;15.30;85.90;;;;;;5011628;28;20026;-79
2023/07/21 06:37:50;;;;;;;9.75;5.85;;;15.40;85.40;;;;;;5011194;28;20532;-80
2023/07/21 06:42:59;;;;;;;10.32;5.82;;;15.50;83.10;;;;;;5030943;28;20050;-79
2023/07/21 06:45:25;;;;;;;8.20;5.55;;;15.60;82.50;;;;;;5031451;28;20030;-79
2023/07/21 06:47:51;;;;;;;9.73;6.30;;;15.80;80.50;;;;;;5031129;28;20025;-79
2023/07/21 06:50:17;;;;;;;9.68;5.60;;;15.80;82.90;;;;;;5031407;28;20025;-79
2023/07/21 06:52:42;;;;;;;8.25;5.68;;;15.80;83.20;;;;;;5027583;28;20080;-79
2023/07/21 06:55:08;;;;;;;11.85;6.25;;;15.80;83.00;;;;;;5011465;28;20029;-79
2023/07/21 06:57:34;;;;;;;7.32;5.57;;;15.90;80.60;;;;;;4993947;28;20028;-79
2023/07/21 07:00:00;;;;;;;9.98;5.78;;;16.00;82.60;;;;;;5010745;28;20030;-79
2023/07/21 07:02:26;;;;;;;8.32;5.30;;;16.10;81.90;;;;;;5010852;28;20033;-79
2023/07/21 07:04:54;;;;;;;10.77;5.90;;;16.10;80.10;;;;;;5010551;28;20045;-80
2023/07/21 07:07:20;;;;;;;7.68;5.20;;;16.20;78.70;;;;;;5010712;28;20421;-79
2023/07/21 07:09:46;;;;;;;8.05;5.47;;;16.20;78.80;;;;;;5010538;28;20108;-80
2023/07/21 07:12:11;;;;;;;7.28;5.20;;;16.10;78.50;;;;;;5010594;28;20493;-79
2023/07/21 07:14:37;;;;;;;7.80;5.32;;;16.10;78.20;;;;;;5011335;28;20022;-80
2023/07/21 07:17:03;;;;;;;8.20;5.63;;;16.20;81.40;;;;;;5011034;28;20625;-80
2023/07/21 07:19:29;;;;;;;8.57;5.60;;;16.30;81.70;;;;;;5010789;28;20022;-79
2023/07/21 07:21:55;;;;;;;6.53;5.00;;;16.40;79.80;;;;;;5020524;28;20060;-80
2023/07/21 07:24:20;;;;;;;9.60;5.72;;;16.50;79.10;;;;;;5010663;28;20406;-79
2023/07/21 07:26:47;;;;;;;8.88;5.50;;;16.50;77.00;;;;;;5010158;28;20022;-79
2023/07/21 07:29:15;;;;;;;9.40;5.32;;;16.60;78.00;;;;;;5011257;28;20025;-79
2023/07/21 07:31:40;;;;;;;9.43;6.05;;;16.70;77.80;;;;;;5011063;28;20053;-79
2023/07/21 07:34:06;;;;;;;9.95;5.55;;;16.80;76.90;;;;;;5010636;28;20466;-80
2023/07/21 07:36:32;;;;;;;9.85;5.60;;;16.80;75.30;;;;;;5010261;28;20025;-82
2023/07/21 07:38:57;;;;;;;7.82;5.07;;;16.90;75.90;;;;;;5009660;28;20029;-79
2023/07/21 07:41:23;;;;;;;8.65;6.05;;;16.90;78.00;;;;;;5041470;22;20084;-81
2023/07/21 07:43:49;;;;;;;11.52;6.22;;;16.90;74.00;;;;;;5034641;28;20025;-85
2023/07/21 07:46:17;;;;;;;9.57;5.28;;;17.00;74.60;;;;;;5019904;28;20060;-84
2023/07/21 07:48:43;;;;;;;7.85;5.75;;;17.00;71.90;;;;;;5031497;28;20029;-84
2023/07/21 07:51:09;;;;;;;10.50;5.18;;;17.10;74.20;;;;;;5037077;28;20017;-85
2023/07/21 07:53:35;;;;;;;7.40;4.95;;;17.10;76.60;;;;;;5050759;28;20119;-85
2023/07/21 07:56:02;;;;;;;9.38;6.15;;;17.20;75.90;;;;;;5039847;28;20537;-84
2023/07/21 07:58:28;;;;;;;7.10;5.18;;;17.20;71.50;;;;;;5049701;28;20033;-86
2023/07/21 08:00:58;;;;;;;9.93;6.03;;;17.30;74.50;;;;;;5049718;28;20035;-82
2023/07/21 08:03:25;;;;;;;8.00;5.38;;;17.30;73.80;;;;;;5044158;28;20028;-84
2023/07/21 08:05:51;;;;;;;7.80;4.80;;;17.40;72.90;;;;;;5049279;28;20064;-85
2023/07/21 08:08:19;;;;;;;7.45;5.07;;;17.40;71.70;;;;;;5050023;28;20480;-86
2023/07/21 08:10:45;;;;;;;7.55;5.55;;;17.50;73.40;;;;;;5043597;28;20119;-84
2023/07/21 08:13:11;;;;;;;7.25;5.40;;;17.60;72.50;;;;;;5050085;28;20382;-87
2023/07/21 08:15:40;;;;;;;14.00;5.70;;;17.60;73.30;;;;;;5037206;28;20377;-85
2023/07/21 08:18:06;;;;;;;11.88;5.47;;;17.70;70.80;;;;;;5040197;28;20021;-88
2023/07/21 08:20:31;;;;;;;8.90;6.25;;;17.80;70.10;;;;;;5045819;28;20171;-84
2023/07/21 08:22:57;;;;;;;8.40;5.30;;;17.90;71.30;;;;;;5050087;28;20158;-81
2023/07/21 08:25:23;;;;;;;7.20;5.53;;;18.10;70.70;;;;;;5050377;28;20036;-84
2023/07/21 08:27:48;;;;;;;9.40;5.10;;;18.20;69.10;;;;;;5032522;28;20390;-83
2023/07/21 08:30:15;;;;;;;9.23;5.85;;;18.40;68.30;;;;;;5050210;28;20017;-83
2023/07/21 08:32:41;;;;;;;9.80;4.93;;;18.60;67.70;;;;;;5049454;28;20048;-84
2023/07/21 08:35:08;;;;;;;7.47;5.65;;;18.80;64.50;;;;;;5052214;28;20021;-84
2023/07/21 08:37:34;;;;;;;10.27;5.28;;;18.90;64.00;;;;;;5053661;28;20017;-86
2023/07/21 08:40:00;;;;;;;6.25;5.32;;;19.30;63.10;;;;;;5038034;28;20082;-88
2023/07/21 08:42:27;;;;;;;5.95;4.57;;;19.60;58.80;;;;;;5052815;23;20080;-81
2023/07/21 08:44:54;;;;;;;14.05;4.72;;;19.90;58.90;;;;;;5033755;28;20021;-80
2023/07/21 08:47:20;;;;;;;7.70;4.78;;;20.40;57.40;;;;;;5032861;28;20513;-81
2023/07/21 08:49:47;;;;;;;6.00;4.47;;;21.10;55.90;;;;;;5041519;28;20063;-81
2023/07/21 08:52:13;;;;;;;6.97;5.35;;;21.60;52.10;;;;;;5034397;28;20033;-84
2023/07/21 08:54:39;;;;;;;7.93;4.85;;;22.00;54.40;;;;;;5032686;28;20140;-81
2023/07/21 08:57:05;;;;;;;6.93;4.28;;;22.30;50.90;;;;;;5033141;28;20434;-81
2023/07/21 08:59:30;;;;;;;6.65;4.55;;;22.90;50.80;;;;;;5034441;28;20032;-80
2023/07/21 09:01:57;;;;;;;6.05;4.30;;;23.20;49.10;;;;;;5034226;28;20033;-85
2023/07/21 09:04:25;;;;;;;9.82;4.10;;;22.70;46.00;;;;;;5034426;28;20010;-83
2023/07/21 09:06:57;;;;;;;5.35;4.60;;;23.00;50.00;;;;;;5034205;28;20021;-81
2023/07/21 09:09:24;;;;;;;8.52;4.75;;;23.30;48.80;;;;;;5033779;28;20025;-82
2023/07/21 09:11:58;;;;;;;9.10;4.63;;;23.60;48.30;;;;;;5033323;28;20025;-85
2023/07/21 09:14:38;;;;;;;8.35;5.22;;;23.60;48.50;;;;;;5033860;28;20088;-83
2023/07/21 09:17:05;;;;;;;8.13;4.65;;;23.60;48.60;;;;;;5032456;28;20029;-84
2023/07/21 09:19:38;;;;;;;6.50;4.90;;;23.70;49.20;;;;;;5032851;28;20087;-83
2023/07/21 09:22:04;;;;;;;6.07;4.28;;;23.60;49.50;;;;;;5032251;28;20090;-84
2023/07/21 09:24:29;;;;;;;5.22;4.35;;;23.60;48.50;;;;;;5033856;28;20028;-84
2023/07/21 09:27:16;;;;;;;6.90;4.40;;;23.40;46.60;;;;;;5033414;28;20033;-84
2023/07/21 09:29:43;;;;;;;7.97;4.43;;;23.40;47.60;;;;;;5040732;28;20021;-82
2023/07/21 09:32:27;;;;;;;6.60;4.82;;;23.50;48.30;;;;;;5032992;28;20061;-83
2023/07/21 09:35:01;;;;;;;6.90;4.18;;;23.30;47.50;;;;;;5031128;28;20492;-82
2023/07/21 09:37:29;;;;;;;6.40;4.55;;;23.50;48.40;;;;;;5040361;28;20029;-82
2023/07/21 09:39:57;;;;;;;6.00;4.53;;;23.90;48.50;;;;;;5033605;28;20466;-84
2023/07/21 09:42:27;;;;;;;6.53;4.57;;;24.10;46.50;;;;;;5067724;23;20481;-90
2023/07/21 09:44:53;;;;;;;7.05;4.60;;;24.30;47.00;;;;;;5053668;28;20530;-89
2023/07/21 09:47:19;;;;;;;11.07;5.07;;;24.60;43.90;;;;;;5053418;28;20103;-89
2023/07/21 09:49:46;;;;;;;8.23;4.57;;;24.40;44.60;;;;;;5041845;28;20021;-81
2023/07/21 09:52:16;;;;;;;7.13;4.63;;;24.30;45.50;;;;;;5052195;28;20028;-83
2023/07/21 09:54:44;;;;;;;8.23;5.03;;;23.90;43.00;;;;;;5032096;28;20609;-83
2023/07/21 09:57:17;;;;;;;5.55;4.57;;;24.20;46.70;;;;;;5051332;28;20029;-83
2023/07/21 09:59:49;;;;;;;7.47;4.80;;;24.40;44.40;;;;;;5052123;28;20056;-82
2023/07/21 10:02:16;;;;;;;6.35;4.88;;;24.40;43.40;;;;;;5052080;28;20147;-84
2023/07/21 10:04:45;;;;;;;5.45;4.43;;;24.90;43.90;;;;;;5052259;28;20139;-85
2023/07/21 10:07:12;;;;;;;7.03;5.15;;;25.60;43.90;;;;;;5036199;28;20512;-86
2023/07/21 10:09:39;;;;;;;7.60;4.88;;;26.50;41.70;;;;;;5034057;28;20473;-85
2023/07/21 10:12:14;;;;;;;7.63;5.18;;;27.00;38.90;;;;;;5051408;28;20029;-85
2023/07/21 10:14:40;;;;;;;6.03;5.13;;;26.70;37.60;;;;;;5049906;28;20044;-87
2023/07/21 10:17:07;;;;;;;7.25;4.95;;;26.30;40.00;;;;;;5045558;28;20482;-85
2023/07/21 10:19:44;;;;;;;7.28;5.18;;;26.30;39.80;;;;;;5051274;28;20017;-82
2023/07/21 10:22:30;;;;;;;5.90;4.80;;;27.20;40.60;;;;;;5050714;28;20036;-84
2023/07/21 10:24:56;;;;;;;8.52;5.35;;;27.70;38.00;;;;;;5045259;28;20041;-85
2023/07/21 10:27:22;;;;;;;6.53;5.10;;;27.80;36.60;;;;;;5051356;28;20029;-84
2023/07/21 10:30:14;;;;;;;6.93;4.88;;;27.60;36.10;;;;;;5050984;28;20527;-84
2023/07/21 10:32:43;;;;;;;6.25;4.85;;;27.90;36.90;;;;;;5045227;28;20021;-84
2023/07/21 10:35:34;;;;;;;6.70;5.05;;;28.50;35.00;;;;;;5046372;28;20025;-84
2023/07/21 10:38:19;;;;;;;6.60;5.00;;;29.10;34.70;;;;;;5027580;28;20056;-84
2023/07/21 10:43:14;;;;;;;8.50;4.85;;;30.70;34.50;;;;;;5031564;28;20402;-80
2023/07/21 10:45:40;;;;;;;7.18;4.85;;;30.80;31.50;;;;;;5032173;28;20029;-82
2023/07/21 10:48:16;;;;;;;6.55;5.25;;;30.60;30.40;;;;;;5044226;28;20029;-84
2023/07/21 10:50:54;;;;;;;5.43;4.78;;;31.00;33.20;;;;;;5042825;28;20099;-87
2023/07/21 10:53:21;;;;;;;5.55;4.70;;;31.70;31.10;;;;;;5051330;28;20009;-86
2023/07/21 10:55:49;;;;;;;6.32;4.60;;;31.70;30.00;;;;;;5051039;28;20021;-86
2023/07/21 10:58:15;;;;;;;7.60;5.13;;;32.40;31.40;;;;;;5049262;28;20029;-87
2023/07/21 11:00:51;;;;;;;6.60;4.50;;;31.90;30.70;;;;;;5051279;28;20354;-87
2023/07/21 11:03:17;;;;;;;5.32;4.75;;;31.10;29.70;;;;;;5051093;28;20029;-85
2023/07/21 11:05:43;;;;;;;7.60;5.20;;;29.70;32.60;;;;;;5049519;28;20021;-85
2023/07/21 11:08:13;;;;;;;5.80;4.40;;;28.40;32.20;;;;;;5049443;28;20036;-82
2023/07/21 11:10:39;;;;;;;5.03;4.18;;;27.60;35.40;;;;;;5049912;28;20017;-86
2023/07/21 11:13:04;;;;;;;6.80;4.82;;;26.80;35.80;;;;;;5050547;28;20051;-84
2023/07/21 11:15:30;;;;;;;6.78;5.10;;;26.40;38.50;;;;;;5050918;28;20056;-83
2023/07/21 11:17:59;;;;;;;7.10;4.97;;;26.10;39.10;;;;;;5059243;28;20492;-86
2023/07/21 11:20:24;;;;;;;6.20;4.78;;;26.00;39.30;;;;;;5051010;28;20094;-82
2023/07/21 11:22:50;;;;;;;11.45;5.78;;;25.90;39.40;;;;;;5053900;28;20474;-82
2023/07/21 11:25:16;;;;;;;9.75;6.00;;;25.80;42.20;;;;;;5050983;28;20572;-84
2023/07/21 11:27:45;;;;;;;8.57;6.28;;;26.10;42.80;;;;;;5050261;28;20484;-86
2023/07/21 11:30:19;;;;;;;11.18;6.22;;;26.20;42.30;;;;;;5050425;28;20064;-84
2023/07/21 11:32:45;;;;;;;7.82;5.63;;;25.80;42.20;;;;;;5050467;28;20009;-83
2023/07/21 11:35:11;;;;;;;7.30;5.47;;;25.90;43.50;;;;;;5050547;28;20025;-82
2023/07/21 11:37:44;;;;;;;8.30;5.82;;;26.10;42.60;;;;;;5056946;28;20028;-82
2023/07/21 11:40:15;;;;;;;13.27;6.35;;;27.00;41.80;;;;;;5049316;28;20025;-86
2023/07/21 11:42:49;;;;;;;9.73;5.80;;;27.70;40.00;;;;;;5059543;22;20045;-84
2023/07/21 11:45:39;;;;;;;8.93;6.20;;;27.40;39.40;;;;;;5016146;28;20120;-82
2023/07/21 11:48:17;;;;;;;7.15;5.63;;;26.40;40.40;;;;;;5031434;28;20075;-85
2023/07/21 11:50:50;;;;;;;8.93;5.30;;;26.10;43.80;;;;;;5037491;28;20089;-84
2023/07/21 11:53:17;;;;;;;13.43;6.00;;;26.60;42.90;;;;;;5033233;28;20382;-85
2023/07/21 11:55:44;;;;;;;10.57;5.68;;;26.70;42.90;;;;;;5050257;28;20045;-85
2023/07/21 11:58:13;;;;;;;7.78;5.78;;;27.70;40.60;;;;;;5041518;28;20109;-83
2023/07/21 12:00:42;;;;;;;8.32;6.10;;;27.00;39.80;;;;;;5044231;28;20029;-83
2023/07/21 12:03:09;;;;;;;11.65;6.00;;;26.00;42.20;;;;;;5031483;28;20047;-82
2023/07/21 12:05:36;;;;;;;11.07;6.57;;;25.10;45.00;;;;;;5030903;28;20032;-83
2023/07/21 12:08:03;;;;;;;15.07;6.35;;;24.30;46.40;;;;;;5049355;28;20059;-84
2023/07/21 12:10:29;;;;;;;7.28;5.75;;;23.70;47.20;;;;;;5051758;28;20045;-85
2023/07/21 12:12:55;;;;;;;10.02;6.30;;;23.40;48.40;;;;;;5049676;28;20496;-83
2023/07/21 12:15:21;;;;;;;8.63;6.28;;;23.10;49.60;;;;;;5053593;28;20017;-84
2023/07/21 12:17:51;;;;;;;9.88;6.13;;;23.20;49.90;;;;;;5036484;28;20368;-82
2023/07/21 12:20:17;;;;;;;9.85;6.22;;;23.20;48.90;;;;;;5053780;28;20028;-81
2023/07/21 12:22:43;;;;;;;11.45;6.90;;;23.20;49.60;;;;;;5053281;28;20120;-82
2023/07/21 12:25:10;;;;;;;9.57;6.35;;;22.80;50.30;;;;;;5046725;28;20082;-84
2023/07/21 12:27:36;;;;;;;9.90;6.47;;;23.10;51.70;;;;;;5054372;28;20021;-90
2023/07/21 12:30:07;;;;;;;9.15;6.65;;;24.00;50.20;;;;;;5047308;28;20029;-87
2023/07/21 12:32:33;;;;;;;10.45;5.68;;;24.90;46.60;;;;;;5030950;28;20024;-86
2023/07/21 12:34:59;;;;;;;8.70;6.13;;;24.80;46.00;;;;;;5028502;28;20025;-83
2023/07/21 12:37:24;;;;;;;9.25;6.18;;;24.70;46.80;;;;;;5053064;28;20074;-81
2023/07/21 12:39:51;;;;;;;8.10;6.35;;;24.50;47.30;;;;;;5053184;28;20047;-82
2023/07/21 12:42:17;;;;;;;10.68;6.68;;;24.20;47.40;;;;;;5046487;28;20033;-85
2023/07/21 12:44:43;;;;;;;11.23;6.47;;;24.40;46.60;;;;;;5053326;28;20013;-81
2023/07/21 12:47:09;;;;;;;8.23;5.32;;;25.50;46.00;;;;;;5035935;28;20025;-83
2023/07/21 12:49:35;;;;;;;8.75;5.57;;;27.20;45.70;;;;;;5053030;28;20078;-81
2023/07/21 12:52:00;;;;;;;8.65;5.68;;;27.70;42.50;;;;;;5052907;28;20021;-81
2023/07/21 12:54:26;;;;;;;10.68;5.88;;;27.50;42.00;;;;;;5052975;28;20027;-82